Terminal Aerodrome Forecast
Issued by NWS Cleveland, OH

Home | Current Version | Previous Version | Text Only | Print | Product List | Glossary Off
Versions: 1 2 3 4 5 6 7 8 9 10 11 12 13 14 15

000
FTUS41 KCLE 010800 AAA
TAFCAK
TAF AMD
KCAK 010841Z 0109/0206 34004KT P6SM SCT025 OVC060
     FM011200 34005KT P6SM SCT060
     FM020000 33007KT P6SM SKC=

USA.gov is the U.S. government's official web portal to all federal, state and local government web resources and services.